createdAt,value
2023-04-03T00:00:19.751Z,0.51
2023-04-03T00:01:20.740Z,0.51
2023-04-03T00:02:20.779Z,0.52
2023-04-03T00:03:20.738Z,0.51
2023-04-03T00:04:19.724Z,0.51
2023-04-03T00:05:20.731Z,0.50
2023-04-03T00:06:20.681Z,0.52
2023-04-03T00:07:20.677Z,0.50
2023-04-03T00:08:19.760Z,0.51
2023-04-03T00:09:19.657Z,0.51
2023-04-03T00:10:20.715Z,0.51
2023-04-03T00:11:20.718Z,0.52
2023-04-03T00:12:20.731Z,0.52
2023-04-03T00:13:20.761Z,0.50
2023-04-03T00:14:20.774Z,0.52
2023-04-03T00:15:20.771Z,0.51
2023-04-03T00:16:20.847Z,0.51
2023-04-03T00:17:19.789Z,0.51
2023-04-03T00:18:20.808Z,0.51
2023-04-03T00:19:20.817Z,0.51
2023-04-03T00:20:19.803Z,0.51
2023-04-03T00:21:20.809Z,0.51
2023-04-03T00:22:20.827Z,0.52
2023-04-03T00:23:20.853Z,0.51
2023-04-03T00:24:20.845Z,0.51
2023-04-03T00:25:19.860Z,0.50
2023-04-03T00:26:19.886Z,0.51
2023-04-03T00:27:20.901Z,0.51
2023-04-03T00:28:19.910Z,0.51
2023-04-03T00:29:20.902Z,0.51
2023-04-03T00:30:20.922Z,0.52
2023-04-03T00:31:20.963Z,0.51
2023-04-03T00:32:20.981Z,0.51
2023-04-03T00:33:19.978Z,0.52
2023-04-03T00:34:21.034Z,0.52
2023-04-03T00:35:21.022Z,0.51
2023-04-03T00:36:21.150Z,0.52
2023-04-03T00:37:21.052Z,0.52
2023-04-03T00:38:21.094Z,0.52
2023-04-03T00:39:21.112Z,0.52
2023-04-03T00:40:21.185Z,0.50
2023-04-03T00:41:21.202Z,0.51
2023-04-03T00:42:21.213Z,0.51
2023-04-03T00:43:21.225Z,0.51
2023-04-03T00:44:21.332Z,0.52
2023-04-03T00:45:21.316Z,0.51
2023-04-03T00:46:20.324Z,0.52
2023-04-03T00:47:21.316Z,0.52
2023-04-03T00:48:20.361Z,0.51
2023-04-03T00:49:21.384Z,0.51
2023-04-03T00:50:21.461Z,0.51
2023-04-03T00:51:21.564Z,0.51
2023-04-03T00:52:21.519Z,0.52
2023-04-03T00:53:21.575Z,0.51
2023-04-03T00:54:21.593Z,0.51
2023-04-03T00:55:21.627Z,0.51
2023-04-03T00:56:21.690Z,0.52
2023-04-03T00:57:20.790Z,0.51
2023-04-03T00:58:20.780Z,0.51
2023-04-03T00:59:21.747Z,0.51
2023-04-03T01:00:21.792Z,0.51
2023-04-03T01:01:21.816Z,0.51
2023-04-03T01:02:21.867Z,0.51
2023-04-03T01:03:20.794Z,0.51
2023-04-03T01:04:21.828Z,0.51
2023-04-03T01:05:21.798Z,0.52
2023-04-03T01:06:21.785Z,0.52
2023-04-03T01:07:21.818Z,0.52
2023-04-03T01:08:22.507Z,0.52
2023-04-03T01:09:21.881Z,0.52
2023-04-03T01:10:21.960Z,0.51
2023-04-03T01:11:21.981Z,0.52
2023-04-03T01:12:21.994Z,0.51
2023-04-03T01:13:22.001Z,0.52
2023-04-03T01:14:21.012Z,0.50
2023-04-03T01:15:21.036Z,0.51
2023-04-03T01:16:22.094Z,0.51
2023-04-03T01:17:21.064Z,0.51
2023-04-03T01:18:22.069Z,0.51
2023-04-03T01:19:22.082Z,0.51
2023-04-03T01:20:22.078Z,0.51
2023-04-03T01:21:22.079Z,0.51
2023-04-03T01:22:22.083Z,0.51
2023-04-03T01:23:22.092Z,0.52
2023-04-03T01:24:22.113Z,0.50
2023-04-03T01:25:21.170Z,0.51
2023-04-03T01:26:22.149Z,0.52
2023-04-03T01:27:22.175Z,0.51
2023-04-03T01:28:22.176Z,0.51
2023-04-03T01:29:22.217Z,0.52
2023-04-03T01:30:22.194Z,0.51
2023-04-03T01:31:22.346Z,0.51
2023-04-03T01:32:22.254Z,0.51
2023-04-03T01:33:22.255Z,0.52
2023-04-03T01:34:22.355Z,0.52
2023-04-03T01:35:21.370Z,0.51
2023-04-03T01:36:21.421Z,0.51
2023-04-03T01:37:22.490Z,0.51
2023-04-03T01:38:22.514Z,0.51
2023-04-03T01:39:22.565Z,0.51
2023-04-03T01:40:22.629Z,0.51
2023-04-03T01:41:21.622Z,0.51
2023-04-03T01:42:21.611Z,0.51
2023-04-03T01:43:22.641Z,0.51
2023-04-03T01:44:22.665Z,0.51
2023-04-03T01:45:22.787Z,0.51
2023-04-03T01:46:21.702Z,0.52
2023-04-03T01:47:22.795Z,0.51
2023-04-03T01:48:22.745Z,0.52
2023-04-03T01:49:22.761Z,0.51
2023-04-03T01:50:22.777Z,0.52
2023-04-03T01:51:21.795Z,0.51
2023-04-03T01:52:22.809Z,0.52
2023-04-03T01:53:22.803Z,0.51
2023-04-03T01:54:22.845Z,0.51
2023-04-03T01:55:22.869Z,0.52
2023-04-03T01:56:22.867Z,0.51
2023-04-03T01:57:22.921Z,0.51
2023-04-03T01:58:22.879Z,0.52
2023-04-03T01:59:22.885Z,0.51
2023-04-03T02:00:22.922Z,0.51
2023-04-03T02:01:22.007Z,0.51
2023-04-03T02:02:21.916Z,0.51
2023-04-03T02:03:22.876Z,0.52
2023-04-03T02:04:22.923Z,0.51
2023-04-03T02:05:22.897Z,0.51
2023-04-03T02:06:22.946Z,0.51
2023-04-03T02:07:22.888Z,0.50
2023-04-03T02:08:22.900Z,0.50
2023-04-03T02:09:22.952Z,0.51
2023-04-03T02:10:22.908Z,0.51
2023-04-03T02:11:22.930Z,0.51
2023-04-03T02:12:22.990Z,0.51
2023-04-03T02:13:22.957Z,0.51
2023-04-03T02:14:22.945Z,0.51
2023-04-03T02:15:22.939Z,0.51
2023-04-03T02:16:22.944Z,0.51
2023-04-03T02:17:23.040Z,0.50
2023-04-03T02:18:21.937Z,0.51
2023-04-03T02:19:22.927Z,0.51
2023-04-03T02:20:22.947Z,0.51
2023-04-03T02:21:22.915Z,0.51
2023-04-03T02:22:22.923Z,0.50
2023-04-03T02:23:22.925Z,0.50
2023-04-03T02:24:22.947Z,0.51
2023-04-03T02:25:22.927Z,0.51
2023-04-03T02:26:22.921Z,0.51
2023-04-03T02:27:22.926Z,0.51
2023-04-03T02:28:22.959Z,0.51
2023-04-03T02:29:22.920Z,0.51
2023-04-03T02:30:22.926Z,0.51
2023-04-03T02:31:22.025Z,0.51
2023-04-03T02:32:22.915Z,0.51
2023-04-03T02:33:22.919Z,0.50
2023-04-03T02:34:22.956Z,0.50
2023-04-03T02:35:22.913Z,0.50
2023-04-03T02:36:21.916Z,0.51
2023-04-03T02:37:21.941Z,0.50
2023-04-03T02:38:22.922Z,0.51
2023-04-03T02:39:22.926Z,0.51
2023-04-03T02:40:22.949Z,0.51
2023-04-03T02:41:22.906Z,0.51
2023-04-03T02:42:21.979Z,0.51
2023-04-03T02:43:22.924Z,0.51
2023-04-03T02:44:22.898Z,0.51
2023-04-03T02:45:22.969Z,0.50
2023-04-03T02:46:22.910Z,0.51
2023-04-03T02:47:22.910Z,0.50
2023-04-03T02:48:22.907Z,0.50
2023-04-03T02:49:22.910Z,0.51
2023-04-03T02:50:22.884Z,0.50
2023-04-03T02:51:21.883Z,0.50
2023-04-03T02:52:22.877Z,0.51
2023-04-03T02:53:22.891Z,0.51
2023-04-03T02:54:22.894Z,0.50
2023-04-03T02:55:22.895Z,0.50
2023-04-03T02:56:22.914Z,0.51
2023-04-03T02:57:21.926Z,0.50
2023-04-03T02:58:22.892Z,0.51
2023-04-03T02:59:22.893Z,0.50
2023-04-03T03:00:22.895Z,0.50
2023-04-03T03:01:22.949Z,0.51
2023-04-03T03:02:22.886Z,0.51
2023-04-03T03:03:22.872Z,0.51
2023-04-03T03:04:22.868Z,0.50
2023-04-03T03:05:22.923Z,0.51
2023-04-03T03:06:22.915Z,0.51
2023-04-03T03:07:22.917Z,0.51
2023-04-03T03:08:22.891Z,0.51
2023-04-03T03:09:22.887Z,0.51
2023-04-03T03:10:22.883Z,0.51
2023-04-03T03:11:22.905Z,0.51
2023-04-03T03:12:21.907Z,0.50
2023-04-03T03:13:22.928Z,0.51
2023-04-03T03:14:22.918Z,0.51
2023-04-03T03:15:22.904Z,0.51
2023-04-03T03:16:22.945Z,0.51
2023-04-03T03:17:22.917Z,0.50
2023-04-03T03:18:22.908Z,0.51
2023-04-03T03:19:21.919Z,0.51
2023-04-03T03:20:22.901Z,0.51
2023-04-03T03:21:22.966Z,0.51
2023-04-03T03:22:22.914Z,0.51
2023-04-03T03:23:21.913Z,0.51
2023-04-03T03:24:22.913Z,0.50
2023-04-03T03:25:22.903Z,0.51
2023-04-03T03:26:22.919Z,0.51
2023-04-03T03:27:23.024Z,0.50
2023-04-03T03:28:22.923Z,0.51
2023-04-03T03:29:22.990Z,0.50
2023-04-03T03:30:22.941Z,0.51
2023-04-03T03:31:22.991Z,0.50
2023-04-03T03:32:22.954Z,0.50
2023-04-03T03:33:22.946Z,0.50
2023-04-03T03:34:22.944Z,0.50
2023-04-03T03:35:22.955Z,0.51
2023-04-03T03:36:21.988Z,0.50
2023-04-03T03:37:23.001Z,0.51
2023-04-03T03:38:22.972Z,0.50
2023-04-03T03:39:22.977Z,0.51
2023-04-03T03:40:23.008Z,0.51
2023-04-03T03:41:23.008Z,0.51
2023-04-03T03:42:22.028Z,0.50
2023-04-03T03:43:22.026Z,0.50
2023-04-03T03:44:23.051Z,0.51
2023-04-03T03:45:23.106Z,0.51
2023-04-03T03:46:22.253Z,0.51
2023-04-03T03:47:22.100Z,0.51
2023-04-03T03:48:23.077Z,0.51
2023-04-03T03:49:23.161Z,0.51
2023-04-03T03:50:23.087Z,0.50
2023-04-03T03:51:23.193Z,0.51
2023-04-03T03:52:23.119Z,0.51
2023-04-03T03:53:22.170Z,0.50
2023-04-03T03:54:23.148Z,0.51
2023-04-03T03:55:23.162Z,0.51
2023-04-03T03:56:22.174Z,0.50
2023-04-03T03:57:23.271Z,0.50
2023-04-03T03:58:23.203Z,0.51
2023-04-03T03:59:23.238Z,0.50
2023-04-03T04:00:23.243Z,0.51
2023-04-03T04:01:23.295Z,0.51
2023-04-03T04:02:23.328Z,0.50
2023-04-03T04:03:23.317Z,0.50
2023-04-03T04:04:22.332Z,0.50
2023-04-03T04:05:23.337Z,0.51
2023-04-03T04:06:23.306Z,0.50
2023-04-03T04:07:23.277Z,0.51
2023-04-03T04:08:22.304Z,0.50
2023-04-03T04:09:23.336Z,0.51
2023-04-03T04:10:23.346Z,0.50
2023-04-03T04:11:23.360Z,0.51
2023-04-03T04:12:22.338Z,0.51
2023-04-03T04:13:23.346Z,0.50
2023-04-03T04:14:22.375Z,0.50
2023-04-03T04:15:23.366Z,0.50
2023-04-03T04:16:23.406Z,0.50
2023-04-03T04:17:22.500Z,0.51
2023-04-03T04:18:23.388Z,0.51
2023-04-03T04:19:23.405Z,0.51
2023-04-03T04:20:22.446Z,0.51
2023-04-03T04:21:23.464Z,0.51
2023-04-03T04:22:22.446Z,0.50
2023-04-03T04:23:23.441Z,0.51
2023-04-03T04:24:22.465Z,0.50
2023-04-03T04:25:23.517Z,0.51
2023-04-03T04:26:22.527Z,0.50
2023-04-03T04:27:23.512Z,0.51
2023-04-03T04:28:23.526Z,0.50
2023-04-03T04:29:23.527Z,0.51
2023-04-03T04:30:23.529Z,0.51
2023-04-03T04:31:23.570Z,0.51
2023-04-03T04:32:23.554Z,0.51
2023-04-03T04:33:23.554Z,0.50
2023-04-03T04:34:23.564Z,0.51
2023-04-03T04:35:23.584Z,0.50
2023-04-03T04:36:22.790Z,0.50
2023-04-03T04:37:22.618Z,0.50
2023-04-03T04:38:22.690Z,0.51
2023-04-03T04:39:23.609Z,0.51
2023-04-03T04:40:23.631Z,0.51
2023-04-03T04:41:23.668Z,0.50
2023-04-03T04:42:22.720Z,0.50
2023-04-03T04:43:23.657Z,0.50
2023-04-03T04:44:23.654Z,0.51
2023-04-03T04:45:22.764Z,0.51
2023-04-03T04:46:23.737Z,0.50
2023-04-03T04:47:22.723Z,0.50
2023-04-03T04:48:23.701Z,0.50
2023-04-03T04:49:23.725Z,0.50
2023-04-03T04:50:23.730Z,0.51
2023-04-03T04:51:23.764Z,0.51
2023-04-03T04:52:23.768Z,0.51
2023-04-03T04:53:23.784Z,0.51
2023-04-03T04:54:22.800Z,0.50
2023-04-03T04:55:23.837Z,0.51
2023-04-03T04:56:23.861Z,0.51
2023-04-03T04:57:23.947Z,0.51
2023-04-03T04:58:23.900Z,0.51
2023-04-03T04:59:23.921Z,0.51
2023-04-03T05:00:23.925Z,0.51
2023-04-03T05:01:23.989Z,0.51
2023-04-03T05:02:24.027Z,0.51
2023-04-03T05:03:23.068Z,0.50
2023-04-03T05:04:23.080Z,0.51
2023-04-03T05:05:23.043Z,0.51
2023-04-03T05:06:24.058Z,0.50
2023-04-03T05:07:24.074Z,0.50
2023-04-03T05:08:24.089Z,0.50
2023-04-03T05:09:24.114Z,0.50
2023-04-03T05:10:24.109Z,0.50
2023-04-03T05:11:25.127Z,0.50
2023-04-03T05:12:24.132Z,0.51
2023-04-03T05:13:23.178Z,0.50
2023-04-03T05:14:24.217Z,0.51
2023-04-03T05:15:23.195Z,0.51
2023-04-03T05:16:24.295Z,0.51
2023-04-03T05:17:23.279Z,0.51
2023-04-03T05:18:24.268Z,0.50
2023-04-03T05:19:24.285Z,0.51
2023-04-03T05:20:23.326Z,0.50
2023-04-03T05:21:24.371Z,0.50
2023-04-03T05:22:24.361Z,0.50
2023-04-03T05:23:23.377Z,0.50
2023-04-03T05:24:23.446Z,0.50
2023-04-03T05:25:24.400Z,0.51
2023-04-03T05:26:23.394Z,0.51
2023-04-03T05:27:24.396Z,0.50
2023-04-03T05:28:23.421Z,0.51
2023-04-03T05:29:24.397Z,0.51
2023-04-03T05:30:24.386Z,0.51
2023-04-03T05:31:24.434Z,0.50
2023-04-03T05:32:23.414Z,0.50
2023-04-03T05:33:23.358Z,0.51
2023-04-03T05:34:24.360Z,0.51
2023-04-03T05:35:24.361Z,0.50
2023-04-03T05:36:23.426Z,0.51
2023-04-03T05:37:24.326Z,0.50
2023-04-03T05:38:24.320Z,0.50
2023-04-03T05:39:23.338Z,0.50
2023-04-03T05:40:24.311Z,0.50
2023-04-03T05:41:24.301Z,0.50
2023-04-03T05:42:24.308Z,0.50
2023-04-03T05:43:24.317Z,0.51
2023-04-03T05:44:24.269Z,0.51
2023-04-03T05:45:24.292Z,0.51
2023-04-03T05:46:24.277Z,0.50
2023-04-03T05:47:23.262Z,0.50
2023-04-03T05:48:23.236Z,0.50
2023-04-03T05:49:23.258Z,0.50
2023-04-03T05:50:24.228Z,0.50
2023-04-03T05:51:24.204Z,0.51
2023-04-03T05:52:23.224Z,0.51
2023-04-03T05:53:24.218Z,0.50
2023-04-03T05:54:24.209Z,0.50
2023-04-03T05:55:23.256Z,0.50
2023-04-03T05:56:24.201Z,0.50
2023-04-03T05:57:24.207Z,0.50
2023-04-03T05:58:24.164Z,0.50
2023-04-03T05:59:24.176Z,0.51
2023-04-03T06:00:24.141Z,0.50
2023-04-03T06:01:23.192Z,0.50
2023-04-03T06:02:23.203Z,0.50
2023-04-03T06:03:24.335Z,0.51
2023-04-03T06:04:24.174Z,0.51
2023-04-03T06:05:23.130Z,0.51
2023-04-03T06:06:24.093Z,0.51
2023-04-03T06:07:24.095Z,0.51
2023-04-03T06:08:24.091Z,0.51
2023-04-03T06:09:23.153Z,0.51
2023-04-03T06:10:24.085Z,0.51
2023-04-03T06:11:24.068Z,0.51
2023-04-03T06:12:23.069Z,0.50
2023-04-03T06:13:24.041Z,0.51
2023-04-03T06:14:24.060Z,0.51
2023-04-03T06:15:23.092Z,0.51
2023-04-03T06:16:24.168Z,0.50
2023-04-03T06:17:24.205Z,0.51
2023-04-03T06:18:24.221Z,0.51
2023-04-03T06:19:23.187Z,0.51
2023-04-03T06:20:24.237Z,0.50
2023-04-03T06:21:24.254Z,0.50
2023-04-03T06:22:23.247Z,0.51
2023-04-03T06:23:24.287Z,0.51
2023-04-03T06:24:24.299Z,0.50
2023-04-03T06:25:24.325Z,0.50
2023-04-03T06:26:24.386Z,0.51
2023-04-03T06:27:24.397Z,0.51
2023-04-03T06:28:25.404Z,0.51
2023-04-03T06:29:24.422Z,0.51
2023-04-03T06:30:23.422Z,0.51
2023-04-03T06:31:24.467Z,0.51
2023-04-03T06:32:24.440Z,0.51
2023-04-03T06:33:24.411Z,0.51
2023-04-03T06:34:24.381Z,0.50
2023-04-03T06:35:24.374Z,0.51
2023-04-03T06:36:24.360Z,0.51
2023-04-03T06:37:23.376Z,0.50
2023-04-03T06:38:24.454Z,0.51
2023-04-03T06:39:24.383Z,0.50
2023-04-03T06:40:24.361Z,0.50
2023-04-03T06:41:24.377Z,0.51
2023-04-03T06:42:24.352Z,0.51
2023-04-03T06:43:24.688Z,0.51
2023-04-03T06:44:24.484Z,0.51
2023-04-03T06:45:24.384Z,0.51
2023-04-03T06:46:24.376Z,0.51
2023-04-03T06:47:23.319Z,0.51
2023-04-03T06:48:24.293Z,0.51
2023-04-03T06:49:24.310Z,0.51
2023-04-03T06:50:24.280Z,0.51
2023-04-03T06:51:24.274Z,0.51
2023-04-03T06:52:24.262Z,0.51
2023-04-03T06:53:23.248Z,0.51
2023-04-03T06:54:24.282Z,0.51
2023-04-03T06:55:24.256Z,0.51
2023-04-03T06:56:24.250Z,0.51
2023-04-03T06:57:23.250Z,0.51
2023-04-03T06:58:23.357Z,0.51
2023-04-03T06:59:24.213Z,0.51
2023-04-03T07:00:24.204Z,0.50
2023-04-03T07:01:24.294Z,0.50
2023-04-03T07:02:24.294Z,0.50
2023-04-03T07:03:24.225Z,0.51
2023-04-03T07:04:24.229Z,0.50
2023-04-03T07:05:24.201Z,0.50
2023-04-03T07:06:24.192Z,0.50
2023-04-03T07:07:24.167Z,0.50
2023-04-03T07:08:23.154Z,0.50
2023-04-03T07:09:23.153Z,0.51
2023-04-03T07:10:24.139Z,0.50
2023-04-03T07:11:24.156Z,0.51
2023-04-03T07:12:23.140Z,0.51
2023-04-03T07:13:23.141Z,0.51
2023-04-03T07:14:23.188Z,0.50
2023-04-03T07:15:24.228Z,0.50
2023-04-03T07:16:24.328Z,0.51
2023-04-03T07:17:24.319Z,0.51
2023-04-03T07:18:24.380Z,0.51
2023-04-03T07:19:23.465Z,0.51
2023-04-03T07:20:23.400Z,0.50
2023-04-03T07:21:24.461Z,0.50
2023-04-03T07:22:24.474Z,0.50
2023-04-03T07:23:24.493Z,0.50
2023-04-03T07:24:23.711Z,0.50
2023-04-03T07:25:24.520Z,0.50
2023-04-03T07:26:24.574Z,0.51
2023-04-03T07:27:24.568Z,0.51
2023-04-03T07:28:24.605Z,0.51
2023-04-03T07:29:24.609Z,0.51
2023-04-03T07:30:23.702Z,0.51
2023-04-03T07:31:23.680Z,0.51
2023-04-03T07:32:24.708Z,0.51
2023-04-03T07:33:24.723Z,0.51
2023-04-03T07:34:24.750Z,0.50
2023-04-03T07:35:23.799Z,0.50
2023-04-03T07:36:24.841Z,0.51
2023-04-03T07:37:24.874Z,0.51
2023-04-03T07:38:23.862Z,0.51
2023-04-03T07:39:24.892Z,0.51
2023-04-03T07:40:24.933Z,0.51
2023-04-03T07:41:24.967Z,0.51
2023-04-03T07:42:24.993Z,0.50
2023-04-03T07:43:25.021Z,0.51
2023-04-03T07:44:25.041Z,0.50
2023-04-03T07:45:25.209Z,0.50
2023-04-03T07:46:24.196Z,0.51
2023-04-03T07:47:24.216Z,0.51
2023-04-03T07:48:25.165Z,0.50
2023-04-03T07:49:25.191Z,0.51
2023-04-03T07:50:24.247Z,0.50
2023-04-03T07:51:25.251Z,0.50
2023-04-03T07:52:25.276Z,0.51
2023-04-03T07:53:25.481Z,0.51
2023-04-03T07:54:25.356Z,0.50
2023-04-03T07:55:24.392Z,0.50
2023-04-03T07:56:25.449Z,0.51
2023-04-03T07:57:25.542Z,0.51
2023-04-03T07:58:24.540Z,0.51
2023-04-03T07:59:25.539Z,0.50
2023-04-03T08:00:25.555Z,0.51
2023-04-03T08:01:25.620Z,0.51
2023-04-03T08:02:24.745Z,0.50
2023-04-03T08:03:25.864Z,0.50
2023-04-03T08:04:25.726Z,0.50
2023-04-03T08:05:25.718Z,0.51
2023-04-03T08:06:33.293Z,0.51
2023-04-03T08:07:25.780Z,0.51
2023-04-03T08:08:25.743Z,0.51
2023-04-03T08:09:24.760Z,0.51
2023-04-03T08:10:24.721Z,0.50
2023-04-03T08:11:25.708Z,0.50
2023-04-03T08:12:25.725Z,0.50
2023-04-03T08:13:25.733Z,0.50
2023-04-03T08:14:25.711Z,0.51
2023-04-03T08:15:25.685Z,0.51
2023-04-03T08:16:25.713Z,0.50
2023-04-03T08:17:25.686Z,0.51
2023-04-03T08:18:25.697Z,0.50
2023-04-03T08:19:26.826Z,0.51
2023-04-03T08:20:25.666Z,0.51
2023-04-03T08:21:25.656Z,0.50
2023-04-03T08:22:24.641Z,0.50
2023-04-03T08:23:24.690Z,0.51
2023-04-03T08:24:25.716Z,0.51
2023-04-03T08:25:24.829Z,0.50
2023-04-03T08:26:24.823Z,0.50
2023-04-03T08:27:25.862Z,0.51
2023-04-03T08:28:25.936Z,0.50
2023-04-03T08:29:25.970Z,0.50
2023-04-03T08:30:26.029Z,0.51
2023-04-03T08:31:26.100Z,0.50
2023-04-03T08:32:26.174Z,0.51
2023-04-03T08:33:26.166Z,0.50
2023-04-03T08:34:25.206Z,0.51
2023-04-03T08:35:26.258Z,0.51
2023-04-03T08:36:26.330Z,0.51
2023-04-03T08:37:26.306Z,0.51
2023-04-03T08:38:26.343Z,0.51
2023-04-03T08:39:26.385Z,0.52
2023-04-03T08:40:26.478Z,0.51
2023-04-03T08:41:26.599Z,0.51
2023-04-03T08:42:26.499Z,0.51
2023-04-03T08:43:26.567Z,0.51
2023-04-03T08:44:26.531Z,0.51
2023-04-03T08:45:26.585Z,0.51
2023-04-03T08:46:26.614Z,0.51
2023-04-03T08:47:26.643Z,0.51
2023-04-03T08:48:26.673Z,0.50
2023-04-03T08:49:26.767Z,0.50
2023-04-03T08:50:26.768Z,0.51
2023-04-03T08:51:25.782Z,0.50
2023-04-03T08:52:26.826Z,0.51
2023-04-03T08:53:26.852Z,0.50
2023-04-03T08:54:26.919Z,0.51
2023-04-03T08:55:26.958Z,0.50
2023-04-03T08:56:27.009Z,0.50
2023-04-03T08:57:27.237Z,0.51
2023-04-03T08:58:26.058Z,0.50
2023-04-03T08:59:27.086Z,0.51
2023-04-03T09:00:27.133Z,0.50
2023-04-03T09:01:27.176Z,0.50
2023-04-03T09:02:27.200Z,0.51
2023-04-03T09:03:27.359Z,0.50
2023-04-03T09:04:27.270Z,0.51
2023-04-03T09:05:27.352Z,0.51
2023-04-03T09:06:27.347Z,0.51
2023-04-03T09:07:27.384Z,0.51
2023-04-03T09:08:27.498Z,0.50
2023-04-03T09:09:27.507Z,0.50
2023-04-03T09:10:27.501Z,0.51
2023-04-03T09:11:27.512Z,0.50
2023-04-03T09:12:27.581Z,0.51
2023-04-03T09:13:27.765Z,0.50
2023-04-03T09:14:26.636Z,0.50
2023-04-03T09:15:38.680Z,0.50
2023-04-03T09:16:27.724Z,0.50
2023-04-03T09:17:27.656Z,0.51
2023-04-03T09:18:27.632Z,0.51
2023-04-03T09:19:26.640Z,0.51
2023-04-03T09:20:27.614Z,0.51
2023-04-03T09:21:27.704Z,0.51
2023-04-03T09:22:27.624Z,0.51
2023-04-03T09:23:27.614Z,0.51
2023-04-03T09:24:27.603Z,0.51
2023-04-03T09:25:27.581Z,0.51
2023-04-03T09:26:27.572Z,0.51
2023-04-03T09:27:27.622Z,0.51
2023-04-03T09:28:27.824Z,0.51
2023-04-03T09:29:27.830Z,0.52
2023-04-03T09:30:27.775Z,0.51
2023-04-03T09:31:27.904Z,0.52
2023-04-03T09:32:26.825Z,0.51
2023-04-03T09:33:27.851Z,0.51
2023-04-03T09:34:27.854Z,0.51
2023-04-03T09:35:36.322Z,0.51
2023-04-03T09:36:27.928Z,0.51
2023-04-03T09:37:27.874Z,0.51
2023-04-03T09:38:27.885Z,0.51
2023-04-03T09:39:27.864Z,0.51
2023-04-03T09:40:27.930Z,0.51
2023-04-03T09:41:27.852Z,0.51
2023-04-03T09:42:26.837Z,0.50
2023-04-03T09:43:27.837Z,0.50
2023-04-03T09:44:27.832Z,0.51
2023-04-03T09:45:27.937Z,0.51
2023-04-03T09:46:27.865Z,0.51
2023-04-03T09:47:27.844Z,0.51
2023-04-03T09:48:27.989Z,0.51
2023-04-03T09:49:27.789Z,0.50
2023-04-03T09:50:27.825Z,0.51
2023-04-03T09:51:27.793Z,0.51
2023-04-03T09:52:27.800Z,0.51
2023-04-03T09:53:27.785Z,0.51
2023-04-03T09:54:27.741Z,0.51
2023-04-03T09:55:27.737Z,0.51
2023-04-03T09:56:27.748Z,0.51
2023-04-03T09:57:27.875Z,0.51
2023-04-03T09:58:31.401Z,0.51
2023-04-03T09:59:27.740Z,0.51
2023-04-03T10:00:27.732Z,0.51
2023-04-03T10:01:27.843Z,0.51
2023-04-03T10:02:27.727Z,0.51
2023-04-03T10:03:27.700Z,0.51
2023-04-03T10:04:27.761Z,0.51
2023-04-03T10:05:27.707Z,0.51
2023-04-03T10:06:27.699Z,0.50
2023-04-03T10:07:27.653Z,0.50
2023-04-03T10:08:27.668Z,0.50
2023-04-03T10:09:27.665Z,0.51
2023-04-03T10:10:27.633Z,0.51
2023-04-03T10:11:27.650Z,0.51
2023-04-03T10:12:27.696Z,0.50
2023-04-03T10:13:27.639Z,0.51
2023-04-03T10:14:27.663Z,0.51
2023-04-03T10:15:27.593Z,0.51
2023-04-03T10:16:27.638Z,0.51
2023-04-03T10:17:27.746Z,0.51
2023-04-03T10:18:27.673Z,0.50
2023-04-03T10:19:27.581Z,0.50
2023-04-03T10:20:27.561Z,0.51
2023-04-03T10:21:27.911Z,0.51
2023-04-03T10:22:27.554Z,0.51
2023-04-03T10:23:27.561Z,0.51
2023-04-03T10:24:27.555Z,0.50
2023-04-03T10:25:27.543Z,0.51
2023-04-03T10:26:27.513Z,0.51
2023-04-03T10:27:28.105Z,0.51
2023-04-03T10:28:27.527Z,0.50
2023-04-03T10:29:27.513Z,0.51
2023-04-03T10:30:27.514Z,0.51
2023-04-03T10:31:27.613Z,0.50
2023-04-03T10:32:27.492Z,0.51
2023-04-03T10:33:27.606Z,0.51
2023-04-03T10:34:27.460Z,0.51
2023-04-03T10:35:27.476Z,0.51
2023-04-03T10:36:27.686Z,0.51
2023-04-03T10:37:27.498Z,0.51
2023-04-03T10:38:27.436Z,0.51
2023-04-03T10:39:26.423Z,0.51
2023-04-03T10:40:26.450Z,0.51
2023-04-03T10:41:26.403Z,0.51
2023-04-03T10:42:27.421Z,0.50
2023-04-03T10:43:27.427Z,0.50
2023-04-03T10:44:26.400Z,0.51
2023-04-03T10:45:26.392Z,0.51
2023-04-03T10:46:26.487Z,0.51
2023-04-03T10:47:27.441Z,0.52
2023-04-03T10:48:27.473Z,0.51
2023-04-03T10:49:26.588Z,0.51
2023-04-03T10:50:27.494Z,0.51
2023-04-03T10:51:26.481Z,0.52
2023-04-03T10:52:27.510Z,0.52
2023-04-03T10:53:26.550Z,0.51
2023-04-03T10:54:26.540Z,0.52
2023-04-03T10:55:26.572Z,0.52
2023-04-03T10:56:26.592Z,0.52
2023-04-03T10:57:27.627Z,0.52
2023-04-03T10:58:27.609Z,0.52
2023-04-03T10:59:27.632Z,0.52
2023-04-03T11:00:27.645Z,0.52
2023-04-03T11:01:27.676Z,0.52
2023-04-03T11:02:30.224Z,0.52
2023-04-03T11:03:27.786Z,0.52
2023-04-03T11:04:26.677Z,0.52
2023-04-03T11:05:26.783Z,0.52
2023-04-03T11:06:27.634Z,0.51
2023-04-03T11:07:27.678Z,0.52
2023-04-03T11:08:27.707Z,0.52
2023-04-03T11:09:27.639Z,0.52
2023-04-03T11:10:26.609Z,0.51
2023-04-03T11:11:27.628Z,0.51
2023-04-03T11:12:26.612Z,0.51
2023-04-03T11:13:27.647Z,0.51
2023-04-03T11:14:27.587Z,0.51
2023-04-03T11:15:26.593Z,0.51
2023-04-03T11:16:27.577Z,0.51
2023-04-03T11:17:27.572Z,0.51
2023-04-03T11:18:27.588Z,0.51
2023-04-03T11:19:27.612Z,0.51
2023-04-03T11:20:26.569Z,0.51
2023-04-03T11:21:26.660Z,0.51
2023-04-03T11:22:27.517Z,0.51
2023-04-03T11:23:28.350Z,0.51
2023-04-03T11:24:27.507Z,0.51
2023-04-03T11:25:26.496Z,0.51
2023-04-03T11:26:26.557Z,0.51
2023-04-03T11:27:27.503Z,0.51
2023-04-03T11:28:27.527Z,0.51
2023-04-03T11:29:35.054Z,0.51
2023-04-03T11:30:27.462Z,0.51
2023-04-03T11:31:27.527Z,0.51
2023-04-03T11:32:26.491Z,0.52
2023-04-03T11:33:26.449Z,0.51
2023-04-03T11:34:26.449Z,0.52
2023-04-03T11:35:27.438Z,0.52
2023-04-03T11:36:29.939Z,0.52
2023-04-03T11:37:26.541Z,0.52
2023-04-03T11:38:27.486Z,0.52
2023-04-03T11:39:27.821Z,0.52
2023-04-03T11:40:27.533Z,0.51
2023-04-03T11:41:26.529Z,0.52
2023-04-03T11:42:27.595Z,0.51
2023-04-03T11:43:26.606Z,0.51
2023-04-03T11:44:26.679Z,0.51
2023-04-03T11:45:27.720Z,0.51
2023-04-03T11:46:27.715Z,0.51
2023-04-03T11:47:27.832Z,0.52
2023-04-03T11:48:27.772Z,0.51
2023-04-03T11:49:27.764Z,0.51
2023-04-03T11:50:26.786Z,0.52
2023-04-03T11:51:27.788Z,0.52
2023-04-03T11:52:27.811Z,0.51
2023-04-03T11:53:28.045Z,0.52
2023-04-03T11:54:32.453Z,0.52
2023-04-03T11:55:27.846Z,0.52
2023-04-03T11:56:27.845Z,0.52
2023-04-03T11:57:27.891Z,0.52
2023-04-03T11:58:27.819Z,0.52
2023-04-03T11:59:27.847Z,0.52
2023-04-03T12:00:27.808Z,0.52
2023-04-03T12:01:28.313Z,0.52
2023-04-03T12:02:27.845Z,0.52
2023-04-03T12:03:27.985Z,0.52
2023-04-03T12:04:28.066Z,0.52
2023-04-03T12:05:27.787Z,0.52
2023-04-03T12:06:27.773Z,0.52
2023-04-03T12:07:26.782Z,0.52
2023-04-03T12:08:27.749Z,0.51
2023-04-03T12:09:26.868Z,0.52
2023-04-03T12:10:32.360Z,0.52
2023-04-03T12:11:27.724Z,0.52
2023-04-03T12:12:27.736Z,0.52
2023-04-03T12:13:27.733Z,0.52
2023-04-03T12:14:27.703Z,0.53
2023-04-03T12:15:27.699Z,0.59
2023-04-03T12:16:27.748Z,0.62
2023-04-03T12:17:27.731Z,0.58
2023-04-03T12:18:27.680Z,0.57
2023-04-03T12:19:35.456Z,0.57
2023-04-03T12:20:27.665Z,0.57
2023-04-03T12:21:27.660Z,0.57
2023-04-03T12:22:27.656Z,0.57
2023-04-03T12:23:27.643Z,0.56
2023-04-03T12:24:26.628Z,0.57
2023-04-03T12:25:27.748Z,0.56
2023-04-03T12:26:30.230Z,0.57
2023-04-03T12:27:27.614Z,0.57
2023-04-03T12:28:26.605Z,0.57
2023-04-03T12:29:26.630Z,0.57
2023-04-03T12:30:27.591Z,0.57
2023-04-03T12:31:27.790Z,0.58
2023-04-03T12:32:26.620Z,0.57
2023-04-03T12:33:27.599Z,0.57
2023-04-03T12:34:26.550Z,0.56
2023-04-03T12:35:26.656Z,0.56
2023-04-03T12:36:27.555Z,0.57
2023-04-03T12:37:27.566Z,0.57
2023-04-03T12:38:27.529Z,0.57
2023-04-03T12:39:27.538Z,0.57
2023-04-03T12:40:27.530Z,0.58
2023-04-03T12:41:26.650Z,0.57
2023-04-03T12:42:26.496Z,0.57
2023-04-03T12:43:27.525Z,0.57
2023-04-03T12:44:26.493Z,0.57
2023-04-03T12:45:27.565Z,0.57
2023-04-03T12:46:26.697Z,0.57
2023-04-03T12:47:27.506Z,0.57
2023-04-03T12:48:27.471Z,0.57
2023-04-03T12:49:27.496Z,0.57
2023-04-03T12:50:27.521Z,0.56
2023-04-03T12:51:27.532Z,0.57
2023-04-03T12:52:27.569Z,0.57
2023-04-03T12:53:26.576Z,0.57
2023-04-03T12:54:27.595Z,0.57
2023-04-03T12:55:27.630Z,0.56
2023-04-03T12:56:27.645Z,0.57
2023-04-03T12:57:27.827Z,0.57
2023-04-03T12:58:27.692Z,0.57
2023-04-03T12:59:27.719Z,0.57
2023-04-03T13:00:27.712Z,0.57
2023-04-03T13:01:27.760Z,0.57
2023-04-03T13:02:27.832Z,0.57
2023-04-03T13:03:26.818Z,0.58
2023-04-03T13:04:27.761Z,0.57
2023-04-03T13:05:27.798Z,0.57
2023-04-03T13:06:27.806Z,0.57
2023-04-03T13:07:27.855Z,0.57
2023-04-03T13:08:27.855Z,0.57
2023-04-03T13:09:27.880Z,0.57
2023-04-03T13:10:27.900Z,0.57
2023-04-03T13:11:27.901Z,0.56
2023-04-03T13:12:26.926Z,0.57
2023-04-03T13:13:27.074Z,0.56
2023-04-03T13:14:27.994Z,0.56
2023-04-03T13:15:28.032Z,0.57
2023-04-03T13:16:28.064Z,0.57
2023-04-03T13:17:27.132Z,0.56
2023-04-03T13:18:27.109Z,0.57